< < Back
Terminal Aerodrome Forecast


Current Version              Previous Versions:   1  2  3  4  5  6  7  8  9  

Terminal Aerodrome Forecast

711
FTUS44 KBMX 170500
TAFMGM
TAF
KMGM 170533Z 1706/1806 VRB03KT P6SM FEW060 SCT100
      TEMPO 1709/1713 3SM BR
     FM171400 31006KT P6SM SCT250
     FM180000 00000KT P6SM SCT250=

Latest METAR

017
SAUS80 KWBC 170500
MTRMGM
METAR KMGM 170453Z AUTO 24005KT 10SM CLR 24/21 A2999 RMK AO2 SLP154
T02390211


USA.gov is the U.S. government's official web portal to all federal, state and local government web resources and services.